sensor_id;sensor_type;location;lat;lon;timestamp;P1;durP1;ratioP1;P2;durP2;ratioP2
27357;SDS011;14831;50.474;7.616;2023-02-23T00:00:35;2.6;;;2.3;;
27357;SDS011;14831;50.474;7.616;2023-02-23T00:05:36;2.6;;;2.3;;
27357;SDS011;14831;50.474;7.616;2023-02-23T00:10:35;2.6;;;2.3;;
27357;SDS011;14831;50.474;7.616;2023-02-23T00:15:35;2.6;;;2.3;;
27357;SDS011;14831;50.474;7.616;2023-02-23T00:20:35;2.6;;;2.3;;
27357;SDS011;14831;50.474;7.616;2023-02-23T00:25:37;2.7;;;2.5;;
27357;SDS011;14831;50.474;7.616;2023-02-23T00:30:35;2.7;;;2.5;;
27357;SDS011;14831;50.474;7.616;2023-02-23T00:35:35;2.7;;;2.5;;
27357;SDS011;14831;50.474;7.616;2023-02-23T00:40:38;2.7;;;2.5;;
27357;SDS011;14831;50.474;7.616;2023-02-23T00:45:35;2.7;;;2.5;;
27357;SDS011;14831;50.474;7.616;2023-02-23T00:50:35;2.7;;;2.5;;
27357;SDS011;14831;50.474;7.616;2023-02-23T00:55:39;2.6;;;2.4;;
27357;SDS011;14831;50.474;7.616;2023-02-23T01:00:35;2.6;;;2.4;;
27357;SDS011;14831;50.474;7.616;2023-02-23T01:05:35;2.6;;;2.4;;
27357;SDS011;14831;50.474;7.616;2023-02-23T01:10:38;2.6;;;2.4;;
27357;SDS011;14831;50.474;7.616;2023-02-23T01:15:40;2.6;;;2.4;;
27357;SDS011;14831;50.474;7.616;2023-02-23T01:20:36;2.6;;;2.4;;
27357;SDS011;14831;50.474;7.616;2023-02-23T01:25:35;2.5;;;2.3;;
27357;SDS011;14831;50.474;7.616;2023-02-23T01:30:36;2.5;;;2.3;;
27357;SDS011;14831;50.474;7.616;2023-02-23T01:35:35;2.5;;;2.3;;
27357;SDS011;14831;50.474;7.616;2023-02-23T01:40:35;2.5;;;2.3;;
27357;SDS011;14831;50.474;7.616;2023-02-23T01:45:35;2.5;;;2.3;;
27357;SDS011;14831;50.474;7.616;2023-02-23T01:50:41;2.5;;;2.3;;
27357;SDS011;14831;50.474;7.616;2023-02-23T01:55:35;2.5;;;2.3;;
27357;SDS011;14831;50.474;7.616;2023-02-23T02:00:36;2.5;;;2.3;;
27357;SDS011;14831;50.474;7.616;2023-02-23T02:05:36;2.5;;;2.3;;
27357;SDS011;14831;50.474;7.616;2023-02-23T02:10:36;2.5;;;2.3;;
27357;SDS011;14831;50.474;7.616;2023-02-23T02:15:42;2.5;;;2.3;;
27357;SDS011;14831;50.474;7.616;2023-02-23T02:21:37;2.5;;;2.3;;
27357;SDS011;14831;50.474;7.616;2023-02-23T02:25:45;2.5;;;2.3;;
27357;SDS011;14831;50.474;7.616;2023-02-23T02:30:45;2.5;;;2.3;;
27357;SDS011;14831;50.474;7.616;2023-02-23T02:36:10;2.5;;;2.3;;
27357;SDS011;14831;50.474;7.616;2023-02-23T02:40:41;2.5;;;2.3;;
27357;SDS011;14831;50.474;7.616;2023-02-23T02:45:40;2.5;;;2.3;;
27357;SDS011;14831;50.474;7.616;2023-02-23T02:50:41;2.5;;;2.3;;
27357;SDS011;14831;50.474;7.616;2023-02-23T02:55:38;2.3;;;2.1;;
27357;SDS011;14831;50.474;7.616;2023-02-23T03:00:37;2.3;;;2.1;;
27357;SDS011;14831;50.474;7.616;2023-02-23T03:05:41;2.3;;;2.1;;
27357;SDS011;14831;50.474;7.616;2023-02-23T03:10:41;2.3;;;2.1;;
27357;SDS011;14831;50.474;7.616;2023-02-23T03:15:41;2.3;;;2.1;;
27357;SDS011;14831;50.474;7.616;2023-02-23T03:20:41;2.3;;;2.1;;
27357;SDS011;14831;50.474;7.616;2023-02-23T03:25:45;2.5;;;2.3;;
27357;SDS011;14831;50.474;7.616;2023-02-23T03:30:43;2.5;;;2.3;;
27357;SDS011;14831;50.474;7.616;2023-02-23T03:35:44;2.5;;;2.3;;
27357;SDS011;14831;50.474;7.616;2023-02-23T03:40:38;2.5;;;2.3;;
27357;SDS011;14831;50.474;7.616;2023-02-23T03:45:36;2.5;;;2.3;;
27357;SDS011;14831;50.474;7.616;2023-02-23T03:50:39;2.5;;;2.3;;
27357;SDS011;14831;50.474;7.616;2023-02-23T03:55:38;2.3;;;2.1;;
27357;SDS011;14831;50.474;7.616;2023-02-23T04:00:39;2.3;;;2.1;;
27357;SDS011;14831;50.474;7.616;2023-02-23T04:05:38;2.3;;;2.1;;
27357;SDS011;14831;50.474;7.616;2023-02-23T04:10:43;2.3;;;2.1;;
27357;SDS011;14831;50.474;7.616;2023-02-23T04:15:38;2.3;;;2.1;;
27357;SDS011;14831;50.474;7.616;2023-02-23T04:20:35;2.3;;;2.1;;
27357;SDS011;14831;50.474;7.616;2023-02-23T04:25:35;2.0;;;1.9;;
27357;SDS011;14831;50.474;7.616;2023-02-23T04:30:35;2.0;;;1.9;;
27357;SDS011;14831;50.474;7.616;2023-02-23T04:35:35;2.0;;;1.9;;
27357;SDS011;14831;50.474;7.616;2023-02-23T04:40:35;2.0;;;1.9;;
27357;SDS011;14831;50.474;7.616;2023-02-23T04:45:35;2.0;;;1.9;;
27357;SDS011;14831;50.474;7.616;2023-02-23T04:50:35;2.0;;;1.9;;
27357;SDS011;14831;50.474;7.616;2023-02-23T04:55:35;2.3;;;2.1;;
27357;SDS011;14831;50.474;7.616;2023-02-23T05:00:35;2.3;;;2.1;;
27357;SDS011;14831;50.474;7.616;2023-02-23T05:05:35;2.3;;;2.1;;
27357;SDS011;14831;50.474;7.616;2023-02-23T05:10:36;2.3;;;2.1;;
27357;SDS011;14831;50.474;7.616;2023-02-23T05:15:35;2.3;;;2.1;;
27357;SDS011;14831;50.474;7.616;2023-02-23T05:20:35;2.3;;;2.1;;
27357;SDS011;14831;50.474;7.616;2023-02-23T05:25:36;1.9;;;1.8;;
27357;SDS011;14831;50.474;7.616;2023-02-23T05:30:35;1.9;;;1.8;;
27357;SDS011;14831;50.474;7.616;2023-02-23T05:35:38;1.9;;;1.8;;
27357;SDS011;14831;50.474;7.616;2023-02-23T05:40:35;1.9;;;1.8;;
27357;SDS011;14831;50.474;7.616;2023-02-23T05:45:39;1.9;;;1.8;;
27357;SDS011;14831;50.474;7.616;2023-02-23T05:50:35;1.9;;;1.8;;
27357;SDS011;14831;50.474;7.616;2023-02-23T05:55:35;1.8;;;1.7;;
27357;SDS011;14831;50.474;7.616;2023-02-23T06:00:35;1.8;;;1.7;;
27357;SDS011;14831;50.474;7.616;2023-02-23T06:05:35;1.8;;;1.7;;
27357;SDS011;14831;50.474;7.616;2023-02-23T06:10:35;1.8;;;1.7;;
27357;SDS011;14831;50.474;7.616;2023-02-23T06:15:35;1.8;;;1.7;;
27357;SDS011;14831;50.474;7.616;2023-02-23T06:20:36;1.8;;;1.7;;
27357;SDS011;14831;50.474;7.616;2023-02-23T06:25:35;1.9;;;1.8;;
27357;SDS011;14831;50.474;7.616;2023-02-23T06:30:36;1.9;;;1.8;;
27357;SDS011;14831;50.474;7.616;2023-02-23T06:35:35;1.9;;;1.8;;
27357;SDS011;14831;50.474;7.616;2023-02-23T06:40:36;1.9;;;1.8;;
27357;SDS011;14831;50.474;7.616;2023-02-23T06:45:35;1.9;;;1.8;;
27357;SDS011;14831;50.474;7.616;2023-02-23T06:50:35;1.9;;;1.8;;
27357;SDS011;14831;50.474;7.616;2023-02-23T06:55:35;1.9;;;1.8;;
27357;SDS011;14831;50.474;7.616;2023-02-23T07:05:35;1.9;;;1.8;;
27357;SDS011;14831;50.474;7.616;2023-02-23T07:10:35;1.9;;;1.8;;
27357;SDS011;14831;50.474;7.616;2023-02-23T07:15:35;1.9;;;1.8;;
27357;SDS011;14831;50.474;7.616;2023-02-23T07:20:35;1.9;;;1.8;;
27357;SDS011;14831;50.474;7.616;2023-02-23T07:25:35;2.5;;;2.3;;
27357;SDS011;14831;50.474;7.616;2023-02-23T07:30:35;2.5;;;2.3;;
27357;SDS011;14831;50.474;7.616;2023-02-23T07:35:35;2.5;;;2.3;;
27357;SDS011;14831;50.474;7.616;2023-02-23T07:40:35;2.5;;;2.3;;
27357;SDS011;14831;50.474;7.616;2023-02-23T07:45:35;2.5;;;2.3;;
27357;SDS011;14831;50.474;7.616;2023-02-23T07:50:35;2.5;;;2.3;;
27357;SDS011;14831;50.474;7.616;2023-02-23T07:55:35;2.4;;;2.2;;
27357;SDS011;14831;50.474;7.616;2023-02-23T08:00:35;2.4;;;2.2;;
27357;SDS011;14831;50.474;7.616;2023-02-23T08:05:35;2.4;;;2.2;;
27357;SDS011;14831;50.474;7.616;2023-02-23T08:10:35;2.4;;;2.2;;
27357;SDS011;14831;50.474;7.616;2023-02-23T08:15:35;2.4;;;2.2;;
27357;SDS011;14831;50.474;7.616;2023-02-23T08:20:35;2.4;;;2.2;;
27357;SDS011;14831;50.474;7.616;2023-02-23T08:25:36;2.2;;;1.9;;
27357;SDS011;14831;50.474;7.616;2023-02-23T08:30:35;2.2;;;1.9;;
27357;SDS011;14831;50.474;7.616;2023-02-23T08:35:35;2.2;;;1.9;;
27357;SDS011;14831;50.474;7.616;2023-02-23T08:40:35;2.2;;;1.9;;
27357;SDS011;14831;50.474;7.616;2023-02-23T08:45:36;2.2;;;1.9;;
27357;SDS011;14831;50.474;7.616;2023-02-23T08:50:35;2.2;;;1.9;;
27357;SDS011;14831;50.474;7.616;2023-02-23T08:55:36;2.8;;;2.6;;
27357;SDS011;14831;50.474;7.616;2023-02-23T09:00:35;2.8;;;2.6;;
27357;SDS011;14831;50.474;7.616;2023-02-23T09:05:36;2.8;;;2.6;;
27357;SDS011;14831;50.474;7.616;2023-02-23T09:10:35;2.8;;;2.6;;
27357;SDS011;14831;50.474;7.616;2023-02-23T09:15:35;2.8;;;2.6;;
27357;SDS011;14831;50.474;7.616;2023-02-23T09:20:35;2.8;;;2.6;;
27357;SDS011;14831;50.474;7.616;2023-02-23T09:25:38;4.8;;;2.8;;
27357;SDS011;14831;50.474;7.616;2023-02-23T09:30:35;4.8;;;2.8;;
27357;SDS011;14831;50.474;7.616;2023-02-23T09:35:36;4.8;;;2.8;;
27357;SDS011;14831;50.474;7.616;2023-02-23T09:40:43;4.8;;;2.8;;
27357;SDS011;14831;50.474;7.616;2023-02-23T09:45:40;4.8;;;2.8;;
27357;SDS011;14831;50.474;7.616;2023-02-23T09:50:37;4.8;;;2.8;;
27357;SDS011;14831;50.474;7.616;2023-02-23T09:55:37;4.9;;;3.1;;
27357;SDS011;14831;50.474;7.616;2023-02-23T10:00:40;4.9;;;3.1;;
27357;SDS011;14831;50.474;7.616;2023-02-23T10:05:40;4.9;;;3.1;;
27357;SDS011;14831;50.474;7.616;2023-02-23T10:10:43;4.9;;;3.1;;
27357;SDS011;14831;50.474;7.616;2023-02-23T10:15:41;4.9;;;3.1;;
27357;SDS011;14831;50.474;7.616;2023-02-23T10:20:43;4.9;;;3.1;;
27357;SDS011;14831;50.474;7.616;2023-02-23T10:25:40;4.1;;;3.3;;
27357;SDS011;14831;50.474;7.616;2023-02-23T10:30:35;4.1;;;3.3;;
27357;SDS011;14831;50.474;7.616;2023-02-23T10:35:36;4.1;;;3.3;;
27357;SDS011;14831;50.474;7.616;2023-02-23T10:40:35;4.1;;;3.3;;
27357;SDS011;14831;50.474;7.616;2023-02-23T10:45:42;4.1;;;3.3;;
27357;SDS011;14831;50.474;7.616;2023-02-23T10:50:37;4.1;;;3.3;;
27357;SDS011;14831;50.474;7.616;2023-02-23T10:55:35;10.2;;;3.8;;
27357;SDS011;14831;50.474;7.616;2023-02-23T11:00:37;10.2;;;3.8;;
27357;SDS011;14831;50.474;7.616;2023-02-23T11:05:42;10.2;;;3.8;;
27357;SDS011;14831;50.474;7.616;2023-02-23T11:10:35;10.2;;;3.8;;
27357;SDS011;14831;50.474;7.616;2023-02-23T11:15:36;10.2;;;3.8;;
27357;SDS011;14831;50.474;7.616;2023-02-23T11:20:37;10.2;;;3.8;;
27357;SDS011;14831;50.474;7.616;2023-02-23T11:25:36;4.7;;;3.9;;
27357;SDS011;14831;50.474;7.616;2023-02-23T11:30:36;4.7;;;3.9;;
27357;SDS011;14831;50.474;7.616;2023-02-23T11:35:36;4.7;;;3.9;;
27357;SDS011;14831;50.474;7.616;2023-02-23T11:40:35;4.7;;;3.9;;
27357;SDS011;14831;50.474;7.616;2023-02-23T11:45:43;4.7;;;3.9;;
27357;SDS011;14831;50.474;7.616;2023-02-23T11:50:35;4.7;;;3.9;;
27357;SDS011;14831;50.474;7.616;2023-02-23T11:55:35;4.3;;;3.7;;
27357;SDS011;14831;50.474;7.616;2023-02-23T12:00:35;4.3;;;3.7;;
27357;SDS011;14831;50.474;7.616;2023-02-23T12:05:36;4.3;;;3.7;;
27357;SDS011;14831;50.474;7.616;2023-02-23T12:10:40;4.3;;;3.7;;
27357;SDS011;14831;50.474;7.616;2023-02-23T12:15:41;4.3;;;3.7;;
27357;SDS011;14831;50.474;7.616;2023-02-23T12:20:38;4.3;;;3.7;;
27357;SDS011;14831;50.474;7.616;2023-02-23T12:25:39;4.5;;;3.3;;
27357;SDS011;14831;50.474;7.616;2023-02-23T12:30:41;4.5;;;3.3;;
27357;SDS011;14831;50.474;7.616;2023-02-23T12:35:43;4.5;;;3.3;;
27357;SDS011;14831;50.474;7.616;2023-02-23T12:40:38;4.5;;;3.3;;
27357;SDS011;14831;50.474;7.616;2023-02-23T12:45:46;4.5;;;3.3;;
27357;SDS011;14831;50.474;7.616;2023-02-23T12:50:38;4.5;;;3.3;;
27357;SDS011;14831;50.474;7.616;2023-02-23T12:55:40;3.7;;;3.3;;
27357;SDS011;14831;50.474;7.616;2023-02-23T13:00:44;3.7;;;3.3;;
27357;SDS011;14831;50.474;7.616;2023-02-23T13:05:38;3.7;;;3.3;;
27357;SDS011;14831;50.474;7.616;2023-02-23T13:10:43;3.7;;;3.3;;
27357;SDS011;14831;50.474;7.616;2023-02-23T13:15:48;3.7;;;3.3;;
27357;SDS011;14831;50.474;7.616;2023-02-23T13:20:39;3.7;;;3.3;;
27357;SDS011;14831;50.474;7.616;2023-02-23T13:25:42;6.0;;;3.9;;
27357;SDS011;14831;50.474;7.616;2023-02-23T13:30:35;6.0;;;3.9;;
27357;SDS011;14831;50.474;7.616;2023-02-23T13:35:35;6.0;;;3.9;;
27357;SDS011;14831;50.474;7.616;2023-02-23T13:40:40;6.0;;;3.9;;
27357;SDS011;14831;50.474;7.616;2023-02-23T13:45:46;6.0;;;3.9;;
27357;SDS011;14831;50.474;7.616;2023-02-23T13:50:43;6.0;;;3.9;;
27357;SDS011;14831;50.474;7.616;2023-02-23T13:55:44;3.4;;;3.1;;
27357;SDS011;14831;50.474;7.616;2023-02-23T14:00:35;3.4;;;3.1;;
27357;SDS011;14831;50.474;7.616;2023-02-23T14:05:41;3.4;;;3.1;;
27357;SDS011;14831;50.474;7.616;2023-02-23T14:10:37;3.4;;;3.1;;
27357;SDS011;14831;50.474;7.616;2023-02-23T14:15:44;3.4;;;3.1;;
27357;SDS011;14831;50.474;7.616;2023-02-23T14:20:43;3.4;;;3.1;;
27357;SDS011;14831;50.474;7.616;2023-02-23T14:25:52;4.4;;;3.7;;
27357;SDS011;14831;50.474;7.616;2023-02-23T14:30:44;4.4;;;3.7;;
27357;SDS011;14831;50.474;7.616;2023-02-23T14:35:41;4.4;;;3.7;;
27357;SDS011;14831;50.474;7.616;2023-02-23T14:40:39;4.4;;;3.7;;
27357;SDS011;14831;50.474;7.616;2023-02-23T14:45:36;4.4;;;3.7;;
27357;SDS011;14831;50.474;7.616;2023-02-23T14:50:36;4.4;;;3.7;;
27357;SDS011;14831;50.474;7.616;2023-02-23T14:55:40;8.7;;;4.8;;
27357;SDS011;14831;50.474;7.616;2023-02-23T15:00:41;8.7;;;4.8;;
27357;SDS011;14831;50.474;7.616;2023-02-23T15:05:40;8.7;;;4.8;;
27357;SDS011;14831;50.474;7.616;2023-02-23T15:10:38;8.7;;;4.8;;
27357;SDS011;14831;50.474;7.616;2023-02-23T15:15:40;8.7;;;4.8;;
27357;SDS011;14831;50.474;7.616;2023-02-23T15:20:35;8.7;;;4.8;;
27357;SDS011;14831;50.474;7.616;2023-02-23T15:25:37;6.1;;;4.2;;
27357;SDS011;14831;50.474;7.616;2023-02-23T15:30:44;6.1;;;4.2;;
27357;SDS011;14831;50.474;7.616;2023-02-23T15:35:40;6.1;;;4.2;;
27357;SDS011;14831;50.474;7.616;2023-02-23T15:40:35;6.1;;;4.2;;
27357;SDS011;14831;50.474;7.616;2023-02-23T15:45:37;6.1;;;4.2;;
27357;SDS011;14831;50.474;7.616;2023-02-23T15:50:40;6.1;;;4.2;;
27357;SDS011;14831;50.474;7.616;2023-02-23T15:55:36;5.4;;;4.1;;
27357;SDS011;14831;50.474;7.616;2023-02-23T16:00:37;5.4;;;4.1;;
27357;SDS011;14831;50.474;7.616;2023-02-23T16:05:35;5.4;;;4.1;;
27357;SDS011;14831;50.474;7.616;2023-02-23T16:10:42;5.4;;;4.1;;
27357;SDS011;14831;50.474;7.616;2023-02-23T16:15:36;5.4;;;4.1;;
27357;SDS011;14831;50.474;7.616;2023-02-23T16:20:38;5.4;;;4.1;;
27357;SDS011;14831;50.474;7.616;2023-02-23T16:25:35;5.4;;;4.3;;
27357;SDS011;14831;50.474;7.616;2023-02-23T16:30:40;5.4;;;4.3;;
27357;SDS011;14831;50.474;7.616;2023-02-23T16:35:37;5.4;;;4.3;;
27357;SDS011;14831;50.474;7.616;2023-02-23T16:40:35;5.4;;;4.3;;
27357;SDS011;14831;50.474;7.616;2023-02-23T16:45:37;5.4;;;4.3;;
27357;SDS011;14831;50.474;7.616;2023-02-23T16:50:35;5.4;;;4.3;;
27357;SDS011;14831;50.474;7.616;2023-02-23T16:55:38;5.3;;;4.0;;
27357;SDS011;14831;50.474;7.616;2023-02-23T17:00:35;5.3;;;4.0;;
27357;SDS011;14831;50.474;7.616;2023-02-23T17:05:35;5.3;;;4.0;;
27357;SDS011;14831;50.474;7.616;2023-02-23T17:10:35;5.3;;;4.0;;
27357;SDS011;14831;50.474;7.616;2023-02-23T17:15:37;5.3;;;4.0;;
27357;SDS011;14831;50.474;7.616;2023-02-23T17:20:35;5.3;;;4.0;;
27357;SDS011;14831;50.474;7.616;2023-02-23T17:25:35;6.1;;;4.7;;
27357;SDS011;14831;50.474;7.616;2023-02-23T17:30:36;6.1;;;4.7;;
27357;SDS011;14831;50.474;7.616;2023-02-23T17:35:35;6.1;;;4.7;;
27357;SDS011;14831;50.474;7.616;2023-02-23T17:40:35;6.1;;;4.7;;
27357;SDS011;14831;50.474;7.616;2023-02-23T17:45:35;6.1;;;4.7;;
27357;SDS011;14831;50.474;7.616;2023-02-23T17:50:35;6.1;;;4.7;;
27357;SDS011;14831;50.474;7.616;2023-02-23T17:55:35;4.8;;;4.3;;
27357;SDS011;14831;50.474;7.616;2023-02-23T18:00:35;4.8;;;4.3;;
27357;SDS011;14831;50.474;7.616;2023-02-23T18:07:45;4.8;;;4.3;;
27357;SDS011;14831;50.474;7.616;2023-02-23T18:10:35;4.8;;;4.3;;
27357;SDS011;14831;50.474;7.616;2023-02-23T18:15:35;4.8;;;4.3;;
27357;SDS011;14831;50.474;7.616;2023-02-23T18:20:35;4.8;;;4.3;;
27357;SDS011;14831;50.474;7.616;2023-02-23T18:25:35;4.6;;;4.1;;
27357;SDS011;14831;50.474;7.616;2023-02-23T18:30:35;4.6;;;4.1;;
27357;SDS011;14831;50.474;7.616;2023-02-23T18:35:37;4.6;;;4.1;;
27357;SDS011;14831;50.474;7.616;2023-02-23T18:40:36;4.6;;;4.1;;
27357;SDS011;14831;50.474;7.616;2023-02-23T18:45:35;4.6;;;4.1;;
27357;SDS011;14831;50.474;7.616;2023-02-23T18:50:35;4.6;;;4.1;;
27357;SDS011;14831;50.474;7.616;2023-02-23T18:55:36;5.3;;;4.4;;
27357;SDS011;14831;50.474;7.616;2023-02-23T19:00:35;5.3;;;4.4;;
27357;SDS011;14831;50.474;7.616;2023-02-23T19:05:35;5.3;;;4.4;;
27357;SDS011;14831;50.474;7.616;2023-02-23T19:10:35;5.3;;;4.4;;
27357;SDS011;14831;50.474;7.616;2023-02-23T19:15:35;5.3;;;4.4;;
27357;SDS011;14831;50.474;7.616;2023-02-23T19:20:35;5.3;;;4.4;;
27357;SDS011;14831;50.474;7.616;2023-02-23T19:25:35;4.8;;;4.3;;
27357;SDS011;14831;50.474;7.616;2023-02-23T19:30:35;4.8;;;4.3;;
27357;SDS011;14831;50.474;7.616;2023-02-23T19:35:37;4.8;;;4.3;;
27357;SDS011;14831;50.474;7.616;2023-02-23T19:40:37;4.8;;;4.3;;
27357;SDS011;14831;50.474;7.616;2023-02-23T19:45:35;4.8;;;4.3;;
27357;SDS011;14831;50.474;7.616;2023-02-23T19:50:36;4.8;;;4.3;;
27357;SDS011;14831;50.474;7.616;2023-02-23T19:55:35;4.5;;;4.1;;
27357;SDS011;14831;50.474;7.616;2023-02-23T20:00:35;4.5;;;4.1;;
27357;SDS011;14831;50.474;7.616;2023-02-23T20:05:38;4.5;;;4.1;;
27357;SDS011;14831;50.474;7.616;2023-02-23T20:10:37;4.5;;;4.1;;
27357;SDS011;14831;50.474;7.616;2023-02-23T20:15:35;4.5;;;4.1;;
27357;SDS011;14831;50.474;7.616;2023-02-23T20:20:37;4.5;;;4.1;;
27357;SDS011;14831;50.474;7.616;2023-02-23T20:25:36;4.7;;;4.2;;
27357;SDS011;14831;50.474;7.616;2023-02-23T20:30:35;4.7;;;4.2;;
27357;SDS011;14831;50.474;7.616;2023-02-23T20:35:35;4.7;;;4.2;;
27357;SDS011;14831;50.474;7.616;2023-02-23T20:40:36;4.7;;;4.2;;
27357;SDS011;14831;50.474;7.616;2023-02-23T20:45:35;4.7;;;4.2;;
27357;SDS011;14831;50.474;7.616;2023-02-23T20:50:36;4.7;;;4.2;;
27357;SDS011;14831;50.474;7.616;2023-02-23T20:55:35;4.2;;;3.8;;
27357;SDS011;14831;50.474;7.616;2023-02-23T21:00:35;4.2;;;3.8;;
27357;SDS011;14831;50.474;7.616;2023-02-23T21:05:37;4.2;;;3.8;;
27357;SDS011;14831;50.474;7.616;2023-02-23T21:10:38;4.2;;;3.8;;
27357;SDS011;14831;50.474;7.616;2023-02-23T21:15:36;4.2;;;3.8;;
27357;SDS011;14831;50.474;7.616;2023-02-23T21:20:36;4.2;;;3.8;;
27357;SDS011;14831;50.474;7.616;2023-02-23T21:25:35;4.1;;;3.7;;
27357;SDS011;14831;50.474;7.616;2023-02-23T21:30:35;4.1;;;3.7;;
27357;SDS011;14831;50.474;7.616;2023-02-23T21:35:35;4.1;;;3.7;;
27357;SDS011;14831;50.474;7.616;2023-02-23T21:40:35;4.1;;;3.7;;
27357;SDS011;14831;50.474;7.616;2023-02-23T21:45:37;4.1;;;3.7;;
27357;SDS011;14831;50.474;7.616;2023-02-23T21:50:35;4.1;;;3.7;;
27357;SDS011;14831;50.474;7.616;2023-02-23T21:55:36;4.3;;;3.9;;
27357;SDS011;14831;50.474;7.616;2023-02-23T22:00:35;4.3;;;3.9;;
27357;SDS011;14831;50.474;7.616;2023-02-23T22:05:35;4.3;;;3.9;;
27357;SDS011;14831;50.474;7.616;2023-02-23T22:10:35;4.3;;;3.9;;
27357;SDS011;14831;50.474;7.616;2023-02-23T22:15:36;4.3;;;3.9;;
27357;SDS011;14831;50.474;7.616;2023-02-23T22:20:35;4.3;;;3.9;;
27357;SDS011;14831;50.474;7.616;2023-02-23T22:25:35;4.6;;;4.0;;
27357;SDS011;14831;50.474;7.616;2023-02-23T22:30:35;4.6;;;4.0;;
27357;SDS011;14831;50.474;7.616;2023-02-23T22:35:38;4.6;;;4.0;;
27357;SDS011;14831;50.474;7.616;2023-02-23T22:40:35;4.6;;;4.0;;
27357;SDS011;14831;50.474;7.616;2023-02-23T22:45:36;4.6;;;4.0;;
27357;SDS011;14831;50.474;7.616;2023-02-23T22:50:36;4.6;;;4.0;;
27357;SDS011;14831;50.474;7.616;2023-02-23T22:55:35;4.1;;;3.7;;
27357;SDS011;14831;50.474;7.616;2023-02-23T23:00:35;4.1;;;3.7;;
27357;SDS011;14831;50.474;7.616;2023-02-23T23:05:35;4.1;;;3.7;;
27357;SDS011;14831;50.474;7.616;2023-02-23T23:10:36;4.1;;;3.7;;
27357;SDS011;14831;50.474;7.616;2023-02-23T23:15:35;4.1;;;3.7;;
27357;SDS011;14831;50.474;7.616;2023-02-23T23:20:35;4.1;;;3.7;;
27357;SDS011;14831;50.474;7.616;2023-02-23T23:25:35;4.1;;;3.7;;
27357;SDS011;14831;50.474;7.616;2023-02-23T23:30:35;4.1;;;3.7;;
27357;SDS011;14831;50.474;7.616;2023-02-23T23:35:35;4.1;;;3.7;;
27357;SDS011;14831;50.474;7.616;2023-02-23T23:40:35;4.1;;;3.7;;
27357;SDS011;14831;50.474;7.616;2023-02-23T23:45:38;4.1;;;3.7;;
27357;SDS011;14831;50.474;7.616;2023-02-23T23:50:35;4.1;;;3.7;;
27357;SDS011;14831;50.474;7.616;2023-02-23T23:55:35;3.6;;;3.3;;
